sensor_id;sensor_type;location;lat;lon;timestamp;P1;durP1;ratioP1;P2;durP2;ratioP2
68507;SDS011;55510;49.560;19.090;2024-03-07T05:43:10;34.35;;;12.20;;
68507;SDS011;55510;49.560;19.090;2024-03-07T05:46:13;39.25;;;14.02;;
68507;SDS011;55510;49.560;19.090;2024-03-07T05:49:14;41.07;;;16.13;;
68507;SDS011;55510;49.560;19.090;2024-03-07T05:52:19;34.53;;;14.20;;
68507;SDS011;55510;49.560;19.090;2024-03-07T05:55:20;36.03;;;13.47;;
68507;SDS011;55510;49.560;19.090;2024-03-07T05:58:22;43.72;;;16.25;;
68507;SDS011;55510;49.560;19.090;2024-03-07T06:01:23;30.97;;;13.67;;
68507;SDS011;55510;49.560;19.090;2024-03-07T06:04:26;37.53;;;14.50;;
68507;SDS011;55510;49.560;19.090;2024-03-07T06:07:26;33.97;;;14.02;;
68507;SDS011;55510;49.560;19.090;2024-03-07T06:10:27;33.63;;;14.07;;
68507;SDS011;55510;49.560;19.090;2024-03-07T06:13:28;32.92;;;13.68;;
68507;SDS011;55510;49.560;19.090;2024-03-07T06:16:30;32.30;;;13.63;;
68507;SDS011;55510;49.560;19.090;2024-03-07T06:19:34;37.70;;;13.93;;
68507;SDS011;55510;49.560;19.090;2024-03-07T06:22:35;34.17;;;13.07;;
68507;SDS011;55510;49.560;19.090;2024-03-07T06:25:36;35.57;;;13.73;;
68507;SDS011;55510;49.560;19.090;2024-03-07T06:28:37;29.90;;;12.57;;
68507;SDS011;55510;49.560;19.090;2024-03-07T06:31:38;29.27;;;13.20;;
68507;SDS011;55510;49.560;19.090;2024-03-07T06:34:38;28.50;;;11.70;;
68507;SDS011;55510;49.560;19.090;2024-03-07T06:37:39;35.23;;;14.53;;
68507;SDS011;55510;49.560;19.090;2024-03-07T06:40:41;29.58;;;13.07;;
68507;SDS011;55510;49.560;19.090;2024-03-07T06:43:44;26.02;;;10.05;;
68507;SDS011;55510;49.560;19.090;2024-03-07T06:46:45;28.57;;;12.20;;
68507;SDS011;55510;49.560;19.090;2024-03-07T06:49:45;27.98;;;11.05;;
68507;SDS011;55510;49.560;19.090;2024-03-07T06:52:46;29.57;;;11.80;;
68507;SDS011;55510;49.560;19.090;2024-03-07T06:55:47;29.45;;;12.70;;
68507;SDS011;55510;49.560;19.090;2024-03-07T06:58:49;27.75;;;10.68;;
68507;SDS011;55510;49.560;19.090;2024-03-07T07:01:49;28.73;;;11.97;;
68507;SDS011;55510;49.560;19.090;2024-03-07T07:04:51;28.30;;;10.77;;
68507;SDS011;55510;49.560;19.090;2024-03-07T07:07:52;30.07;;;11.77;;
68507;SDS011;55510;49.560;19.090;2024-03-07T07:10:53;32.50;;;12.63;;
68507;SDS011;55510;49.560;19.090;2024-03-07T07:13:54;33.28;;;14.75;;
68507;SDS011;55510;49.560;19.090;2024-03-07T07:16:55;31.90;;;12.60;;
68507;SDS011;55510;49.560;19.090;2024-03-07T07:19:57;27.38;;;12.00;;
68507;SDS011;55510;49.560;19.090;2024-03-07T07:22:58;26.65;;;11.43;;
68507;SDS011;55510;49.560;19.090;2024-03-07T07:26:00;26.83;;;11.27;;
68507;SDS011;55510;49.560;19.090;2024-03-07T07:29:02;28.00;;;11.53;;
68507;SDS011;55510;49.560;19.090;2024-03-07T07:32:05;29.33;;;11.50;;
68507;SDS011;55510;49.560;19.090;2024-03-07T07:35:06;30.27;;;10.57;;
68507;SDS011;55510;49.560;19.090;2024-03-07T07:38:11;27.23;;;11.68;;
68507;SDS011;55510;49.560;19.090;2024-03-07T07:41:15;29.63;;;12.07;;
68507;SDS011;55510;49.560;19.090;2024-03-07T07:44:15;31.07;;;12.53;;
68507;SDS011;55510;49.560;19.090;2024-03-07T07:47:16;29.37;;;12.73;;
68507;SDS011;55510;49.560;19.090;2024-03-07T07:50:19;26.90;;;10.93;;
68507;SDS011;55510;49.560;19.090;2024-03-07T07:53:20;30.55;;;11.70;;
68507;SDS011;55510;49.560;19.090;2024-03-07T07:56:21;32.27;;;13.53;;
68507;SDS011;55510;49.560;19.090;2024-03-07T07:59:21;29.88;;;11.18;;
68507;SDS011;55510;49.560;19.090;2024-03-07T08:02:22;26.93;;;11.40;;
68507;SDS011;55510;49.560;19.090;2024-03-07T08:05:33;33.38;;;13.40;;
68507;SDS011;55510;49.560;19.090;2024-03-07T08:08:34;30.77;;;13.07;;
68507;SDS011;55510;49.560;19.090;2024-03-07T08:11:35;36.00;;;14.77;;
68507;SDS011;55510;49.560;19.090;2024-03-07T08:14:37;36.80;;;14.88;;
68507;SDS011;55510;49.560;19.090;2024-03-07T08:17:37;32.00;;;13.18;;
68507;SDS011;55510;49.560;19.090;2024-03-07T08:20:38;27.70;;;11.80;;
68507;SDS011;55510;49.560;19.090;2024-03-07T08:23:39;42.43;;;15.07;;
68507;SDS011;55510;49.560;19.090;2024-03-07T08:26:39;37.63;;;14.20;;
68507;SDS011;55510;49.560;19.090;2024-03-07T08:29:44;37.08;;;15.60;;
68507;SDS011;55510;49.560;19.090;2024-03-07T08:32:45;40.07;;;16.03;;
68507;SDS011;55510;49.560;19.090;2024-03-07T08:35:47;38.92;;;15.15;;
68507;SDS011;55510;49.560;19.090;2024-03-07T08:38:50;43.77;;;16.07;;
68507;SDS011;55510;49.560;19.090;2024-03-07T08:41:52;41.78;;;16.63;;
68507;SDS011;55510;49.560;19.090;2024-03-07T08:44:53;46.25;;;17.40;;
68507;SDS011;55510;49.560;19.090;2024-03-07T08:47:54;42.90;;;17.70;;
68507;SDS011;55510;49.560;19.090;2024-03-07T08:50:56;41.27;;;15.90;;
68507;SDS011;55510;49.560;19.090;2024-03-07T08:53:57;52.63;;;18.92;;
68507;SDS011;55510;49.560;19.090;2024-03-07T08:56:57;40.77;;;15.63;;
68507;SDS011;55510;49.560;19.090;2024-03-07T08:59:58;49.25;;;18.60;;
68507;SDS011;55510;49.560;19.090;2024-03-07T09:03:01;52.60;;;19.93;;
68507;SDS011;55510;49.560;19.090;2024-03-07T09:06:05;57.10;;;21.02;;
68507;SDS011;55510;49.560;19.090;2024-03-07T09:09:05;52.83;;;19.30;;
68507;SDS011;55510;49.560;19.090;2024-03-07T09:12:09;56.63;;;19.03;;
68507;SDS011;55510;49.560;19.090;2024-03-07T09:15:10;52.58;;;19.33;;
68507;SDS011;55510;49.560;19.090;2024-03-07T09:18:12;54.60;;;18.87;;
68507;SDS011;55510;49.560;19.090;2024-03-07T09:21:14;53.13;;;18.73;;
68507;SDS011;55510;49.560;19.090;2024-03-07T09:24:15;52.35;;;18.65;;
68507;SDS011;55510;49.560;19.090;2024-03-07T09:27:16;57.10;;;18.07;;
68507;SDS011;55510;49.560;19.090;2024-03-07T09:30:20;60.93;;;22.00;;
68507;SDS011;55510;49.560;19.090;2024-03-07T09:33:24;51.97;;;18.50;;
68507;SDS011;55510;49.560;19.090;2024-03-07T09:36:25;57.58;;;19.98;;
68507;SDS011;55510;49.560;19.090;2024-03-07T09:39:26;51.83;;;18.07;;
68507;SDS011;55510;49.560;19.090;2024-03-07T09:42:27;51.33;;;18.73;;
68507;SDS011;55510;49.560;19.090;2024-03-07T09:45:28;47.63;;;17.95;;
68507;SDS011;55510;49.560;19.090;2024-03-07T09:48:31;53.83;;;18.47;;
68507;SDS011;55510;49.560;19.090;2024-03-07T09:51:32;56.83;;;20.02;;
68507;SDS011;55510;49.560;19.090;2024-03-07T09:54:34;41.88;;;16.92;;
68507;SDS011;55510;49.560;19.090;2024-03-07T09:57:35;50.83;;;17.50;;
68507;SDS011;55510;49.560;19.090;2024-03-07T10:00:39;53.87;;;18.37;;
68507;SDS011;55510;49.560;19.090;2024-03-07T10:03:40;49.83;;;19.08;;
68507;SDS011;55510;49.560;19.090;2024-03-07T10:06:45;55.45;;;18.17;;
68507;SDS011;55510;49.560;19.090;2024-03-07T10:09:46;50.97;;;18.73;;
68507;SDS011;55510;49.560;19.090;2024-03-07T10:12:48;52.85;;;19.40;;
68507;SDS011;55510;49.560;19.090;2024-03-07T10:15:50;55.78;;;19.58;;
68507;SDS011;55510;49.560;19.090;2024-03-07T10:18:52;54.40;;;19.75;;
68507;SDS011;55510;49.560;19.090;2024-03-07T10:21:52;50.07;;;17.00;;
68507;SDS011;55510;49.560;19.090;2024-03-07T10:24:58;52.28;;;18.70;;
68507;SDS011;55510;49.560;19.090;2024-03-07T10:27:59;56.53;;;19.97;;
68507;SDS011;55510;49.560;19.090;2024-03-07T10:31:01;59.17;;;19.38;;
68507;SDS011;55510;49.560;19.090;2024-03-07T10:34:03;53.80;;;19.00;;
68507;SDS011;55510;49.560;19.090;2024-03-07T10:37:05;55.75;;;19.02;;
68507;SDS011;55510;49.560;19.090;2024-03-07T10:40:09;52.13;;;18.02;;
68507;SDS011;55510;49.560;19.090;2024-03-07T10:43:18;52.37;;;18.33;;
68507;SDS011;55510;49.560;19.090;2024-03-07T10:46:20;47.90;;;18.13;;
68507;SDS011;55510;49.560;19.090;2024-03-07T10:49:25;48.33;;;17.33;;
68507;SDS011;55510;49.560;19.090;2024-03-07T10:52:30;56.90;;;20.42;;
68507;SDS011;55510;49.560;19.090;2024-03-07T10:55:49;46.53;;;17.13;;
68507;SDS011;55510;49.560;19.090;2024-03-07T10:58:57;51.27;;;18.13;;
68507;SDS011;55510;49.560;19.090;2024-03-07T11:05:12;48.97;;;17.45;;
68507;SDS011;55510;49.560;19.090;2024-03-07T11:08:16;53.53;;;17.40;;
68507;SDS011;55510;49.560;19.090;2024-03-07T11:11:17;55.40;;;19.17;;
68507;SDS011;55510;49.560;19.090;2024-03-07T11:14:18;52.17;;;18.40;;
68507;SDS011;55510;49.560;19.090;2024-03-07T11:17:20;60.95;;;19.77;;
68507;SDS011;55510;49.560;19.090;2024-03-07T11:20:23;55.92;;;20.35;;
68507;SDS011;55510;49.560;19.090;2024-03-07T11:23:28;57.92;;;20.90;;
68507;SDS011;55510;49.560;19.090;2024-03-07T11:26:33;52.13;;;19.57;;
68507;SDS011;55510;49.560;19.090;2024-03-07T11:29:41;56.00;;;21.07;;
68507;SDS011;55510;49.560;19.090;2024-03-07T11:32:43;63.78;;;20.75;;
68507;SDS011;55510;49.560;19.090;2024-03-07T11:35:48;57.10;;;21.42;;
68507;SDS011;55510;49.560;19.090;2024-03-07T11:38:49;56.72;;;21.25;;
68507;SDS011;55510;49.560;19.090;2024-03-07T11:41:50;57.30;;;20.57;;
68507;SDS011;55510;49.560;19.090;2024-03-07T11:44:51;50.72;;;19.80;;
68507;SDS011;55510;49.560;19.090;2024-03-07T11:47:54;52.80;;;18.77;;
68507;SDS011;55510;49.560;19.090;2024-03-07T11:51:07;51.40;;;17.97;;
68507;SDS011;55510;49.560;19.090;2024-03-07T11:54:11;50.70;;;17.80;;
68507;SDS011;55510;49.560;19.090;2024-03-07T11:57:15;46.63;;;18.15;;
68507;SDS011;55510;49.560;19.090;2024-03-07T12:00:19;42.30;;;16.98;;
68507;SDS011;55510;49.560;19.090;2024-03-07T12:03:23;43.60;;;16.70;;
68507;SDS011;55510;49.560;19.090;2024-03-07T12:06:26;49.93;;;18.37;;
68507;SDS011;55510;49.560;19.090;2024-03-07T12:09:27;59.97;;;21.75;;
68507;SDS011;55510;49.560;19.090;2024-03-07T12:12:28;76.88;;;25.90;;
68507;SDS011;55510;49.560;19.090;2024-03-07T12:15:28;64.93;;;24.97;;
68507;SDS011;55510;49.560;19.090;2024-03-07T12:18:30;63.63;;;24.05;;
68507;SDS011;55510;49.560;19.090;2024-03-07T12:21:31;54.73;;;19.23;;
68507;SDS011;55510;49.560;19.090;2024-03-07T12:24:33;57.00;;;19.90;;
68507;SDS011;55510;49.560;19.090;2024-03-07T12:27:34;69.32;;;24.15;;
68507;SDS011;55510;49.560;19.090;2024-03-07T12:30:57;49.35;;;17.92;;
68507;SDS011;55510;49.560;19.090;2024-03-07T12:33:57;47.13;;;16.80;;
68507;SDS011;55510;49.560;19.090;2024-03-07T12:36:58;58.27;;;20.43;;
68507;SDS011;55510;49.560;19.090;2024-03-07T12:39:59;58.15;;;21.00;;
68507;SDS011;55510;49.560;19.090;2024-03-07T12:43:01;57.13;;;19.33;;
68507;SDS011;55510;49.560;19.090;2024-03-07T12:46:04;59.95;;;22.48;;
68507;SDS011;55510;49.560;19.090;2024-03-07T12:49:06;47.55;;;18.95;;
68507;SDS011;55510;49.560;19.090;2024-03-07T12:52:06;50.47;;;18.60;;
68507;SDS011;55510;49.560;19.090;2024-03-07T12:55:08;42.55;;;17.33;;
68507;SDS011;55510;49.560;19.090;2024-03-07T12:58:09;52.27;;;21.70;;
68507;SDS011;55510;49.560;19.090;2024-03-07T13:01:12;54.58;;;20.40;;
68507;SDS011;55510;49.560;19.090;2024-03-07T13:04:13;57.90;;;22.30;;
68507;SDS011;55510;49.560;19.090;2024-03-07T13:07:17;53.10;;;20.73;;
68507;SDS011;55510;49.560;19.090;2024-03-07T13:10:18;54.50;;;20.92;;
68507;SDS011;55510;49.560;19.090;2024-03-07T13:13:19;56.95;;;20.38;;
68507;SDS011;55510;49.560;19.090;2024-03-07T13:16:20;59.27;;;22.50;;
68507;SDS011;55510;49.560;19.090;2024-03-07T13:19:21;55.78;;;21.88;;
68507;SDS011;55510;49.560;19.090;2024-03-07T13:22:22;59.20;;;20.33;;
68507;SDS011;55510;49.560;19.090;2024-03-07T13:25:25;62.55;;;22.58;;
68507;SDS011;55510;49.560;19.090;2024-03-07T13:28:26;59.80;;;22.05;;
68507;SDS011;55510;49.560;19.090;2024-03-07T13:31:29;57.33;;;21.85;;
68507;SDS011;55510;49.560;19.090;2024-03-07T13:34:30;52.50;;;20.20;;
68507;SDS011;55510;49.560;19.090;2024-03-07T13:37:31;65.72;;;23.08;;
68507;SDS011;55510;49.560;19.090;2024-03-07T13:40:34;60.30;;;22.23;;
68507;SDS011;55510;49.560;19.090;2024-03-07T13:43:38;61.83;;;21.65;;
68507;SDS011;55510;49.560;19.090;2024-03-07T13:46:39;67.70;;;23.13;;
68507;SDS011;55510;49.560;19.090;2024-03-07T13:49:40;75.13;;;26.88;;
68507;SDS011;55510;49.560;19.090;2024-03-07T13:52:42;71.30;;;26.63;;
68507;SDS011;55510;49.560;19.090;2024-03-07T13:59:10;85.30;;;29.75;;
68507;SDS011;55510;49.560;19.090;2024-03-07T14:02:41;82.35;;;27.88;;
68507;SDS011;55510;49.560;19.090;2024-03-07T14:06:00;75.82;;;26.88;;
68507;SDS011;55510;49.560;19.090;2024-03-07T14:12:58;71.63;;;26.33;;
68507;SDS011;55510;49.560;19.090;2024-03-07T14:16:34;75.90;;;27.85;;
68507;SDS011;55510;49.560;19.090;2024-03-07T14:27:53;74.20;;;26.50;;
68507;SDS011;55510;49.560;19.090;2024-03-07T14:34:02;74.90;;;26.42;;
68507;SDS011;55510;49.560;19.090;2024-03-07T14:37:22;70.85;;;26.08;;
68507;SDS011;55510;49.560;19.090;2024-03-07T14:40:37;75.50;;;26.83;;
68507;SDS011;55510;49.560;19.090;2024-03-07T14:43:38;71.00;;;27.63;;
68507;SDS011;55510;49.560;19.090;2024-03-07T14:46:39;77.32;;;28.80;;
68507;SDS011;55510;49.560;19.090;2024-03-07T14:49:40;69.18;;;27.13;;
68507;SDS011;55510;49.560;19.090;2024-03-07T14:52:41;68.90;;;25.17;;
68507;SDS011;55510;49.560;19.090;2024-03-07T14:55:43;77.05;;;26.60;;
68507;SDS011;55510;49.560;19.090;2024-03-07T14:58:43;76.93;;;28.55;;
68507;SDS011;55510;49.560;19.090;2024-03-07T15:01:44;65.70;;;25.53;;
68507;SDS011;55510;49.560;19.090;2024-03-07T15:04:45;70.35;;;26.20;;
68507;SDS011;55510;49.560;19.090;2024-03-07T15:07:46;64.68;;;24.25;;
68507;SDS011;55510;49.560;19.090;2024-03-07T15:10:48;83.73;;;31.17;;
68507;SDS011;55510;49.560;19.090;2024-03-07T15:13:59;85.90;;;30.27;;
68507;SDS011;55510;49.560;19.090;2024-03-07T15:17:01;89.75;;;35.53;;
68507;SDS011;55510;49.560;19.090;2024-03-07T15:20:04;87.30;;;31.92;;
68507;SDS011;55510;49.560;19.090;2024-03-07T15:23:07;78.07;;;29.23;;
68507;SDS011;55510;49.560;19.090;2024-03-07T15:26:08;82.03;;;29.15;;
68507;SDS011;55510;49.560;19.090;2024-03-07T15:29:08;97.03;;;33.00;;
68507;SDS011;55510;49.560;19.090;2024-03-07T15:32:09;123.33;;;44.93;;
68507;SDS011;55510;49.560;19.090;2024-03-07T15:35:15;106.20;;;40.35;;
68507;SDS011;55510;49.560;19.090;2024-03-07T15:38:19;129.68;;;48.05;;
68507;SDS011;55510;49.560;19.090;2024-03-07T15:41:19;102.60;;;39.03;;
68507;SDS011;55510;49.560;19.090;2024-03-07T15:44:22;97.05;;;34.20;;
68507;SDS011;55510;49.560;19.090;2024-03-07T15:47:22;89.10;;;34.13;;
68507;SDS011;55510;49.560;19.090;2024-03-07T15:50:23;102.03;;;37.35;;
68507;SDS011;55510;49.560;19.090;2024-03-07T15:53:29;102.50;;;44.50;;
68507;SDS011;55510;49.560;19.090;2024-03-07T15:56:30;102.95;;;38.03;;
68507;SDS011;55510;49.560;19.090;2024-03-07T15:59:30;78.50;;;30.15;;
68507;SDS011;55510;49.560;19.090;2024-03-07T16:02:32;70.40;;;25.70;;
68507;SDS011;55510;49.560;19.090;2024-03-07T16:05:34;75.70;;;29.08;;
68507;SDS011;55510;49.560;19.090;2024-03-07T16:08:35;86.07;;;29.20;;
68507;SDS011;55510;49.560;19.090;2024-03-07T16:11:36;70.27;;;25.07;;
68507;SDS011;55510;49.560;19.090;2024-03-07T16:14:37;71.60;;;24.42;;
68507;SDS011;55510;49.560;19.090;2024-03-07T16:17:38;57.70;;;21.77;;
68507;SDS011;55510;49.560;19.090;2024-03-07T16:20:39;66.60;;;23.98;;
68507;SDS011;55510;49.560;19.090;2024-03-07T16:23:40;66.47;;;25.27;;
68507;SDS011;55510;49.560;19.090;2024-03-07T16:26:41;60.53;;;22.52;;
68507;SDS011;55510;49.560;19.090;2024-03-07T16:29:45;72.63;;;27.23;;
68507;SDS011;55510;49.560;19.090;2024-03-07T16:32:50;74.25;;;26.10;;
68507;SDS011;55510;49.560;19.090;2024-03-07T16:35:58;71.78;;;25.52;;
68507;SDS011;55510;49.560;19.090;2024-03-07T16:38:59;68.90;;;27.02;;
68507;SDS011;55510;49.560;19.090;2024-03-07T16:42:07;65.75;;;26.45;;
68507;SDS011;55510;49.560;19.090;2024-03-07T16:45:08;74.77;;;27.50;;
68507;SDS011;55510;49.560;19.090;2024-03-07T16:48:13;95.90;;;34.92;;
68507;SDS011;55510;49.560;19.090;2024-03-07T16:51:16;67.20;;;26.25;;
68507;SDS011;55510;49.560;19.090;2024-03-07T16:54:16;69.97;;;24.83;;
68507;SDS011;55510;49.560;19.090;2024-03-07T16:57:17;58.53;;;23.33;;
68507;SDS011;55510;49.560;19.090;2024-03-07T17:00:21;79.70;;;26.60;;
68507;SDS011;55510;49.560;19.090;2024-03-07T17:03:27;67.88;;;25.55;;
68507;SDS011;55510;49.560;19.090;2024-03-07T17:06:28;73.30;;;26.98;;
68507;SDS011;55510;49.560;19.090;2024-03-07T17:09:28;68.87;;;26.07;;
68507;SDS011;55510;49.560;19.090;2024-03-07T17:12:29;76.18;;;27.60;;
68507;SDS011;55510;49.560;19.090;2024-03-07T17:15:30;75.23;;;29.07;;
68507;SDS011;55510;49.560;19.090;2024-03-07T17:18:31;64.13;;;26.23;;
68507;SDS011;55510;49.560;19.090;2024-03-07T17:21:32;70.77;;;26.93;;
68507;SDS011;55510;49.560;19.090;2024-03-07T17:24:33;70.97;;;26.43;;
68507;SDS011;55510;49.560;19.090;2024-03-07T17:27:35;67.97;;;24.98;;
68507;SDS011;55510;49.560;19.090;2024-03-07T17:30:36;67.63;;;25.17;;
68507;SDS011;55510;49.560;19.090;2024-03-07T17:33:41;62.53;;;24.92;;
68507;SDS011;55510;49.560;19.090;2024-03-07T17:36:42;60.25;;;23.90;;
68507;SDS011;55510;49.560;19.090;2024-03-07T17:39:44;75.53;;;27.60;;
68507;SDS011;55510;49.560;19.090;2024-03-07T17:42:47;74.97;;;28.08;;
68507;SDS011;55510;49.560;19.090;2024-03-07T17:45:50;89.15;;;31.73;;
68507;SDS011;55510;49.560;19.090;2024-03-07T17:48:51;90.47;;;33.80;;
68507;SDS011;55510;49.560;19.090;2024-03-07T17:51:52;82.07;;;32.65;;
68507;SDS011;55510;49.560;19.090;2024-03-07T17:54:53;92.68;;;33.58;;
68507;SDS011;55510;49.560;19.090;2024-03-07T17:57:55;69.40;;;26.67;;
68507;SDS011;55510;49.560;19.090;2024-03-07T18:00:58;71.60;;;28.30;;
68507;SDS011;55510;49.560;19.090;2024-03-07T18:03:58;84.28;;;31.25;;
68507;SDS011;55510;49.560;19.090;2024-03-07T18:06:59;75.77;;;29.50;;
68507;SDS011;55510;49.560;19.090;2024-03-07T18:10:00;76.32;;;28.90;;
68507;SDS011;55510;49.560;19.090;2024-03-07T18:13:00;77.23;;;29.57;;
68507;SDS011;55510;49.560;19.090;2024-03-07T18:16:01;73.18;;;29.63;;
68507;SDS011;55510;49.560;19.090;2024-03-07T18:19:02;78.77;;;30.00;;
68507;SDS011;55510;49.560;19.090;2024-03-07T18:22:03;77.95;;;29.08;;
68507;SDS011;55510;49.560;19.090;2024-03-07T18:25:06;75.65;;;30.10;;
68507;SDS011;55510;49.560;19.090;2024-03-07T18:28:08;75.07;;;29.27;;
68507;SDS011;55510;49.560;19.090;2024-03-07T18:31:09;79.47;;;30.67;;
68507;SDS011;55510;49.560;19.090;2024-03-07T18:34:15;87.90;;;35.47;;
68507;SDS011;55510;49.560;19.090;2024-03-07T18:37:17;73.32;;;30.55;;
